Погода Новая Лещана 2 недели

Могилёвская область, Белоруссия

25 июня-08 июля
  • 25июня
    Сегодня
    +14°
    +24°
    Небольшая облачность
    ВремяПогодаТемператураВлажностьДавлениеВетер, м/сВероятность осадков
    00:00Облачно с прояснениями+17°C83 %749 мм3.3 м/с2 %
    03:00Ясно и безоблачно+15°C90 %749 мм3.0 м/с2 %
    06:00Небольшая облачность+14°C88 %750 мм3.6 м/с2 %
    09:00Ясно и безоблачно+18°C76 %751 мм3.7 м/с2 %
    12:00Практически безоблачно+22°C49 %752 мм4.3 м/с1 %
    15:00Небольшая облачность+23°C44 %752 мм3.9 м/с2 %
    18:00Небольшая облачность+23°C49 %751 мм4.3 м/с2 %
    21:00Облачно с прояснениями+20°C75 %751 мм1.8 м/с2 %
  • 26июня
    Среда
    +16°
    +26°
    Практически безоблачно
    ВремяПогодаТемператураВлажностьДавлениеВетер, м/сВероятность осадков
    00:00Облачно с прояснениями+17°C79 %751 мм2.3 м/с2 %
    03:00Практически безоблачно+15°C83 %751 мм2.8 м/с2 %
    06:00Ясно и безоблачно+15°C83 %751 мм3.1 м/с2 %
    09:00Ясно и безоблачно+20°C69 %751 мм3.0 м/с2 %
    12:00Ясно и безоблачно+24°C54 %751 мм3.7 м/с1 %
    15:00Практически безоблачно+25°C50 %751 мм3.9 м/с17 %
    18:00Небольшая облачность и лёгкий дождик+25°C53 %750 мм4.6 м/с31 %
    21:00Ясно и безоблачно+23°C70 %750 мм2.4 м/с2 %
  • 27июня
    Четверг
    +15°
    +28°
    Практически безоблачно
    ВремяПогодаТемператураВлажностьДавлениеВетер, м/сВероятность осадков
    00:00Ясно и безоблачно+19°C78 %750 мм2.5 м/с2 %
    03:00Ясно и безоблачно+17°C86 %750 мм2.6 м/с2 %
    06:00Ясно и безоблачно+17°C87 %750 мм2.9 м/с2 %
    09:00Ясно и безоблачно+22°C71 %750 мм2.6 м/с2 %
    12:00Ясно и безоблачно+25°C56 %750 мм3.4 м/с2 %
    15:00Практически безоблачно+27°C48 %750 мм2.9 м/с3 %
    18:00Практически безоблачно+27°C46 %750 мм2.6 м/с2 %
    21:00Ясно и безоблачно+24°C71 %750 мм2.4 м/с2 %
  • 28июня
    Пятница
    +17°
    +28°
    Ясно и безоблачно
    ВремяПогодаТемператураВлажностьДавлениеВетер, м/сВероятность осадков
    00:00Ясно и безоблачно+19°C83 %750 мм2.0 м/с2 %
    03:00Ясно и безоблачно+17°C88 %751 мм1.9 м/с2 %
    06:00Ясно и безоблачно+18°C89 %751 мм1.7 м/с2 %
    09:00Ясно и безоблачно+23°C69 %751 мм1.3 м/с2 %
    12:00Практически безоблачно+26°C55 %751 мм2.1 м/с2 %
    15:00Ясно и безоблачно+28°C51 %751 мм1.2 м/с3 %
    18:00Ясно и безоблачно+28°C50 %750 мм0.7 м/с2 %
    21:00Ясно и безоблачно+26°C60 %750 мм0.8 м/с2 %
  • 29июня
    Суббота
    +18°
    +29°
    Ясно и безоблачно
    ВремяПогодаТемператураВлажностьДавлениеВетер, м/сВероятность осадков
    00:00Ясно и безоблачно+21°C80 %750 мм1.9 м/с2 %
    03:00Ясно и безоблачно+18°C87 %750 мм2.2 м/с2 %
    06:00Ясно и безоблачно+19°C84 %750 мм1.0 м/с2 %
    09:00Ясно и безоблачно+24°C67 %750 мм1.6 м/с2 %
    12:00Ясно и безоблачно+28°C48 %750 мм3.3 м/с3 %
    15:00Ясно и безоблачно+29°C45 %749 мм3.9 м/с8 %
    18:00Ясно и безоблачно+29°C45 %748 мм3.4 м/с19 %
    21:00Практически безоблачно+26°C68 %748 мм2.6 м/с18 %
Мы используем cookies
Соглашаюсь